sensor_id;sensor_type;location;lat;lon;timestamp;pressure;altitude;pressure_sealevel;temperature;humidity
4123;BME280;2075;51.062;6.920;2023-02-22T00:00:20;-11667.00;;;-144.48;100.00
4123;BME280;2075;51.062;6.920;2023-02-22T00:03:13;-11667.00;;;-144.48;100.00
4123;BME280;2075;51.062;6.920;2023-02-22T00:06:01;-11667.00;;;-144.48;100.00
4123;BME280;2075;51.062;6.920;2023-02-22T00:08:49;-11667.00;;;-144.48;100.00
4123;BME280;2075;51.062;6.920;2023-02-22T00:11:35;-11667.00;;;-144.48;100.00
4123;BME280;2075;51.062;6.920;2023-02-22T00:14:21;-11667.00;;;-144.48;100.00
4123;BME280;2075;51.062;6.920;2023-02-22T00:17:10;-11667.00;;;-144.48;100.00
4123;BME280;2075;51.062;6.920;2023-02-22T00:19:56;-11667.00;;;-144.48;100.00
4123;BME280;2075;51.062;6.920;2023-02-22T00:22:43;-11667.00;;;-144.48;100.00
4123;BME280;2075;51.062;6.920;2023-02-22T00:25:30;-11667.00;;;-144.48;100.00
4123;BME280;2075;51.062;6.920;2023-02-22T00:28:16;-11667.00;;;-144.48;100.00
4123;BME280;2075;51.062;6.920;2023-02-22T00:31:01;-11667.00;;;-144.48;100.00
4123;BME280;2075;51.062;6.920;2023-02-22T00:33:48;-11667.00;;;-144.48;100.00
4123;BME280;2075;51.062;6.920;2023-02-22T00:36:34;-11667.00;;;-144.48;100.00
4123;BME280;2075;51.062;6.920;2023-02-22T00:39:19;-11667.00;;;-144.48;100.00
4123;BME280;2075;51.062;6.920;2023-02-22T00:42:06;-11667.00;;;-144.48;100.00
4123;BME280;2075;51.062;6.920;2023-02-22T00:44:52;-11667.00;;;-144.48;100.00
4123;BME280;2075;51.062;6.920;2023-02-22T00:47:37;-11667.00;;;-144.48;100.00
4123;BME280;2075;51.062;6.920;2023-02-22T00:50:24;-11667.00;;;-144.48;100.00
4123;BME280;2075;51.062;6.920;2023-02-22T00:53:10;-11667.00;;;-144.48;100.00
4123;BME280;2075;51.062;6.920;2023-02-22T00:55:55;-11667.00;;;-144.48;100.00
4123;BME280;2075;51.062;6.920;2023-02-22T00:58:42;-11667.00;;;-144.48;100.00
4123;BME280;2075;51.062;6.920;2023-02-22T01:01:27;-11667.00;;;-144.48;100.00
4123;BME280;2075;51.062;6.920;2023-02-22T01:04:13;-11667.00;;;-144.48;100.00
4123;BME280;2075;51.062;6.920;2023-02-22T01:06:58;-11667.00;;;-144.48;100.00
4123;BME280;2075;51.062;6.920;2023-02-22T01:09:44;-11667.00;;;-144.48;100.00
4123;BME280;2075;51.062;6.920;2023-02-22T01:12:30;-11667.00;;;-144.48;100.00
4123;BME280;2075;51.062;6.920;2023-02-22T01:15:19;-11667.00;;;-144.48;100.00
4123;BME280;2075;51.062;6.920;2023-02-22T01:18:05;-11667.00;;;-144.48;100.00
4123;BME280;2075;51.062;6.920;2023-02-22T01:20:51;-11667.00;;;-144.48;100.00
4123;BME280;2075;51.062;6.920;2023-02-22T01:23:36;-11667.00;;;-144.48;100.00
4123;BME280;2075;51.062;6.920;2023-02-22T01:26:22;-11667.00;;;-144.48;100.00
4123;BME280;2075;51.062;6.920;2023-02-22T01:29:07;-11667.00;;;-144.48;100.00
4123;BME280;2075;51.062;6.920;2023-02-22T01:31:55;-11667.00;;;-144.48;100.00
4123;BME280;2075;51.062;6.920;2023-02-22T01:34:40;-11667.00;;;-144.48;100.00
4123;BME280;2075;51.062;6.920;2023-02-22T01:37:28;-11667.00;;;-144.48;100.00
4123;BME280;2075;51.062;6.920;2023-02-22T01:40:19;-11667.00;;;-144.48;100.00
4123;BME280;2075;51.062;6.920;2023-02-22T01:43:14;-11667.00;;;-144.48;100.00
4123;BME280;2075;51.062;6.920;2023-02-22T01:46:01;-11667.00;;;-144.48;100.00
4123;BME280;2075;51.062;6.920;2023-02-22T01:48:51;-11667.00;;;-144.48;100.00
4123;BME280;2075;51.062;6.920;2023-02-22T01:51:41;-11667.00;;;-144.48;100.00
4123;BME280;2075;51.062;6.920;2023-02-22T01:54:30;-11667.00;;;-144.48;100.00
4123;BME280;2075;51.062;6.920;2023-02-22T01:57:19;-11667.00;;;-144.48;100.00
4123;BME280;2075;51.062;6.920;2023-02-22T02:00:10;-11667.00;;;-144.48;100.00
4123;BME280;2075;51.062;6.920;2023-02-22T02:02:59;-11667.00;;;-144.48;100.00
4123;BME280;2075;51.062;6.920;2023-02-22T02:05:49;-11667.00;;;-144.48;100.00
4123;BME280;2075;51.062;6.920;2023-02-22T02:08:40;-11667.00;;;-144.48;100.00
4123;BME280;2075;51.062;6.920;2023-02-22T02:11:31;-11667.00;;;-144.48;100.00
4123;BME280;2075;51.062;6.920;2023-02-22T02:14:17;-11667.00;;;-144.48;100.00
4123;BME280;2075;51.062;6.920;2023-02-22T02:17:03;-11667.00;;;-144.48;100.00
4123;BME280;2075;51.062;6.920;2023-02-22T02:19:56;-11667.00;;;-144.48;100.00
4123;BME280;2075;51.062;6.920;2023-02-22T02:22:47;-11667.00;;;-144.48;100.00
4123;BME280;2075;51.062;6.920;2023-02-22T02:26:08;-11667.00;;;-144.48;100.00
4123;BME280;2075;51.062;6.920;2023-02-22T02:32:36;-11667.00;;;-144.48;100.00
4123;BME280;2075;51.062;6.920;2023-02-22T02:35:34;-11667.00;;;-144.48;100.00
4123;BME280;2075;51.062;6.920;2023-02-22T02:38:31;-11667.00;;;-144.48;100.00
4123;BME280;2075;51.062;6.920;2023-02-22T02:41:21;-11667.00;;;-144.48;100.00
4123;BME280;2075;51.062;6.920;2023-02-22T02:44:12;-11667.00;;;-144.48;100.00
4123;BME280;2075;51.062;6.920;2023-02-22T02:47:00;-11667.00;;;-144.48;100.00
4123;BME280;2075;51.062;6.920;2023-02-22T02:49:50;-11667.00;;;-144.48;100.00
4123;BME280;2075;51.062;6.920;2023-02-22T02:52:40;-11667.00;;;-144.48;100.00
4123;BME280;2075;51.062;6.920;2023-02-22T02:55:27;-11667.00;;;-144.48;100.00
4123;BME280;2075;51.062;6.920;2023-02-22T02:58:17;-11667.00;;;-144.48;100.00
4123;BME280;2075;51.062;6.920;2023-02-22T03:01:03;-11667.00;;;-144.48;100.00
4123;BME280;2075;51.062;6.920;2023-02-22T03:04:20;-11667.00;;;-144.48;100.00
4123;BME280;2075;51.062;6.920;2023-02-22T03:07:17;-11667.00;;;-144.48;100.00
4123;BME280;2075;51.062;6.920;2023-02-22T03:10:16;-11667.00;;;-144.48;100.00
4123;BME280;2075;51.062;6.920;2023-02-22T03:13:09;-11667.00;;;-144.48;100.00
4123;BME280;2075;51.062;6.920;2023-02-22T03:16:07;-11667.00;;;-144.48;100.00
4123;BME280;2075;51.062;6.920;2023-02-22T03:19:01;-11667.00;;;-144.48;100.00
4123;BME280;2075;51.062;6.920;2023-02-22T03:21:54;-11667.00;;;-144.48;100.00
4123;BME280;2075;51.062;6.920;2023-02-22T03:24:47;-11667.00;;;-144.48;100.00
4123;BME280;2075;51.062;6.920;2023-02-22T03:27:40;-11667.00;;;-144.48;100.00
4123;BME280;2075;51.062;6.920;2023-02-22T03:30:32;-11667.00;;;-144.48;100.00
4123;BME280;2075;51.062;6.920;2023-02-22T03:33:24;-11667.00;;;-144.48;100.00
4123;BME280;2075;51.062;6.920;2023-02-22T03:36:15;-11667.00;;;-144.48;100.00
4123;BME280;2075;51.062;6.920;2023-02-22T03:39:02;-11667.00;;;-144.48;100.00
4123;BME280;2075;51.062;6.920;2023-02-22T03:41:50;-11667.00;;;-144.48;100.00
4123;BME280;2075;51.062;6.920;2023-02-22T03:44:40;-11667.00;;;-144.48;100.00
4123;BME280;2075;51.062;6.920;2023-02-22T03:47:44;-11667.00;;;-144.48;100.00
4123;BME280;2075;51.062;6.920;2023-02-22T03:50:34;-11667.00;;;-144.48;100.00
4123;BME280;2075;51.062;6.920;2023-02-22T03:53:20;-11667.00;;;-144.48;100.00
4123;BME280;2075;51.062;6.920;2023-02-22T03:56:10;-11667.00;;;-144.48;100.00
4123;BME280;2075;51.062;6.920;2023-02-22T03:58:59;-11667.00;;;-144.48;100.00
4123;BME280;2075;51.062;6.920;2023-02-22T04:01:44;-11667.00;;;-144.48;100.00
4123;BME280;2075;51.062;6.920;2023-02-22T04:04:29;-11667.00;;;-144.48;100.00
4123;BME280;2075;51.062;6.920;2023-02-22T04:07:15;-11667.00;;;-144.48;100.00
4123;BME280;2075;51.062;6.920;2023-02-22T04:10:01;-11667.00;;;-144.48;100.00
4123;BME280;2075;51.062;6.920;2023-02-22T04:12:47;-11667.00;;;-144.48;100.00
4123;BME280;2075;51.062;6.920;2023-02-22T04:15:35;-11667.00;;;-144.48;100.00
4123;BME280;2075;51.062;6.920;2023-02-22T04:18:26;-11667.00;;;-144.48;100.00
4123;BME280;2075;51.062;6.920;2023-02-22T04:21:11;-11667.00;;;-144.48;100.00
4123;BME280;2075;51.062;6.920;2023-02-22T04:24:01;-11667.00;;;-144.48;100.00
4123;BME280;2075;51.062;6.920;2023-02-22T04:26:46;-11667.00;;;-144.48;100.00
4123;BME280;2075;51.062;6.920;2023-02-22T04:29:32;-11667.00;;;-144.48;100.00
4123;BME280;2075;51.062;6.920;2023-02-22T04:32:20;-11667.00;;;-144.48;100.00
4123;BME280;2075;51.062;6.920;2023-02-22T04:35:06;-11667.00;;;-144.48;100.00
4123;BME280;2075;51.062;6.920;2023-02-22T04:37:52;-11667.00;;;-144.48;100.00
4123;BME280;2075;51.062;6.920;2023-02-22T04:40:38;-11667.00;;;-144.48;100.00
4123;BME280;2075;51.062;6.920;2023-02-22T04:43:24;-11667.00;;;-144.48;100.00
4123;BME280;2075;51.062;6.920;2023-02-22T04:46:12;-11667.00;;;-144.48;100.00
4123;BME280;2075;51.062;6.920;2023-02-22T04:48:59;-11667.00;;;-144.48;100.00
4123;BME280;2075;51.062;6.920;2023-02-22T04:51:47;-11667.00;;;-144.48;100.00
4123;BME280;2075;51.062;6.920;2023-02-22T04:54:34;-11667.00;;;-144.48;100.00
4123;BME280;2075;51.062;6.920;2023-02-22T04:57:20;-11667.00;;;-144.48;100.00
4123;BME280;2075;51.062;6.920;2023-02-22T05:00:08;-11667.00;;;-144.48;100.00
4123;BME280;2075;51.062;6.920;2023-02-22T05:02:54;-11667.00;;;-144.48;100.00
4123;BME280;2075;51.062;6.920;2023-02-22T05:05:41;-11667.00;;;-144.48;100.00
4123;BME280;2075;51.062;6.920;2023-02-22T05:08:27;-11667.00;;;-144.48;100.00
4123;BME280;2075;51.062;6.920;2023-02-22T05:11:12;-11667.00;;;-144.48;100.00
4123;BME280;2075;51.062;6.920;2023-02-22T05:13:57;-11667.00;;;-144.48;100.00
4123;BME280;2075;51.062;6.920;2023-02-22T05:16:43;-11667.00;;;-144.48;100.00
4123;BME280;2075;51.062;6.920;2023-02-22T05:19:28;-11667.00;;;-144.48;100.00
4123;BME280;2075;51.062;6.920;2023-02-22T05:22:15;-11667.00;;;-144.48;100.00
4123;BME280;2075;51.062;6.920;2023-02-22T05:25:00;-11667.00;;;-144.48;100.00
4123;BME280;2075;51.062;6.920;2023-02-22T05:27:50;-11667.00;;;-144.48;100.00
4123;BME280;2075;51.062;6.920;2023-02-22T05:30:37;-11667.00;;;-144.48;100.00
4123;BME280;2075;51.062;6.920;2023-02-22T05:33:23;-11667.00;;;-144.48;100.00
4123;BME280;2075;51.062;6.920;2023-02-22T05:36:08;-11667.00;;;-144.48;100.00
4123;BME280;2075;51.062;6.920;2023-02-22T05:38:55;-11667.00;;;-144.48;100.00
4123;BME280;2075;51.062;6.920;2023-02-22T05:41:40;-11667.00;;;-144.48;100.00
4123;BME280;2075;51.062;6.920;2023-02-22T05:44:26;-11667.00;;;-144.48;100.00
4123;BME280;2075;51.062;6.920;2023-02-22T05:47:12;-11667.00;;;-144.48;100.00
4123;BME280;2075;51.062;6.920;2023-02-22T05:49:57;-11667.00;;;-144.48;100.00
4123;BME280;2075;51.062;6.920;2023-02-22T05:52:44;-11667.00;;;-144.48;100.00
4123;BME280;2075;51.062;6.920;2023-02-22T05:55:31;-11667.00;;;-144.48;100.00
4123;BME280;2075;51.062;6.920;2023-02-22T05:58:17;-11667.00;;;-144.48;100.00
4123;BME280;2075;51.062;6.920;2023-02-22T06:01:02;-11667.00;;;-144.48;100.00
4123;BME280;2075;51.062;6.920;2023-02-22T06:03:48;-11667.00;;;-144.48;100.00
4123;BME280;2075;51.062;6.920;2023-02-22T06:06:34;-11667.00;;;-144.48;100.00
4123;BME280;2075;51.062;6.920;2023-02-22T06:09:19;-11667.00;;;-144.48;100.00
4123;BME280;2075;51.062;6.920;2023-02-22T06:12:06;-11667.00;;;-144.48;100.00
4123;BME280;2075;51.062;6.920;2023-02-22T06:14:52;-11667.00;;;-144.48;100.00
4123;BME280;2075;51.062;6.920;2023-02-22T06:17:38;-11667.00;;;-144.48;100.00
4123;BME280;2075;51.062;6.920;2023-02-22T06:20:27;-11667.00;;;-144.48;100.00
4123;BME280;2075;51.062;6.920;2023-02-22T06:23:16;-11667.00;;;-144.48;100.00
4123;BME280;2075;51.062;6.920;2023-02-22T06:26:01;-11667.00;;;-144.48;100.00
4123;BME280;2075;51.062;6.920;2023-02-22T06:28:48;-11667.00;;;-144.48;100.00
4123;BME280;2075;51.062;6.920;2023-02-22T06:31:33;-11667.00;;;-144.48;100.00
4123;BME280;2075;51.062;6.920;2023-02-22T06:34:20;-11667.00;;;-144.48;100.00
4123;BME280;2075;51.062;6.920;2023-02-22T06:37:05;-11667.00;;;-144.48;100.00
4123;BME280;2075;51.062;6.920;2023-02-22T06:39:51;-11667.00;;;-144.48;100.00
4123;BME280;2075;51.062;6.920;2023-02-22T06:42:36;-11667.00;;;-144.48;100.00
4123;BME280;2075;51.062;6.920;2023-02-22T06:45:23;-11667.00;;;-144.48;100.00
4123;BME280;2075;51.062;6.920;2023-02-22T06:48:08;-11667.00;;;-144.48;100.00
4123;BME280;2075;51.062;6.920;2023-02-22T06:50:54;-11667.00;;;-144.48;100.00
4123;BME280;2075;51.062;6.920;2023-02-22T06:53:39;-11667.00;;;-144.48;100.00
4123;BME280;2075;51.062;6.920;2023-02-22T06:56:25;-11667.00;;;-144.48;100.00
4123;BME280;2075;51.062;6.920;2023-02-22T06:59:10;-11667.00;;;-144.48;100.00
4123;BME280;2075;51.062;6.920;2023-02-22T07:01:57;-11667.00;;;-144.48;100.00
4123;BME280;2075;51.062;6.920;2023-02-22T07:04:44;-11667.00;;;-144.48;100.00
4123;BME280;2075;51.062;6.920;2023-02-22T07:07:29;-11667.00;;;-144.48;100.00
4123;BME280;2075;51.062;6.920;2023-02-22T07:10:18;-11667.00;;;-144.48;100.00
4123;BME280;2075;51.062;6.920;2023-02-22T07:13:05;-11667.00;;;-144.48;100.00
4123;BME280;2075;51.062;6.920;2023-02-22T07:15:51;-11667.00;;;-144.48;100.00
4123;BME280;2075;51.062;6.920;2023-02-22T07:18:38;-11667.00;;;-144.48;100.00
4123;BME280;2075;51.062;6.920;2023-02-22T07:21:23;-11667.00;;;-144.48;100.00
4123;BME280;2075;51.062;6.920;2023-02-22T07:24:09;-11667.00;;;-144.48;100.00
4123;BME280;2075;51.062;6.920;2023-02-22T07:26:54;-11667.00;;;-144.48;100.00
4123;BME280;2075;51.062;6.920;2023-02-22T07:29:41;-11667.00;;;-144.48;100.00
4123;BME280;2075;51.062;6.920;2023-02-22T07:32:26;-11667.00;;;-144.48;100.00
4123;BME280;2075;51.062;6.920;2023-02-22T07:35:16;-11667.00;;;-144.48;100.00
4123;BME280;2075;51.062;6.920;2023-02-22T07:38:02;-11667.00;;;-144.48;100.00
4123;BME280;2075;51.062;6.920;2023-02-22T07:40:49;-11667.00;;;-144.48;100.00
4123;BME280;2075;51.062;6.920;2023-02-22T07:43:34;-11667.00;;;-144.48;100.00
4123;BME280;2075;51.062;6.920;2023-02-22T07:46:21;-11667.00;;;-144.48;100.00
4123;BME280;2075;51.062;6.920;2023-02-22T07:49:06;-11665.53;;;-144.48;100.00
4123;BME280;2075;51.062;6.920;2023-02-22T07:51:53;-11161.53;;;-144.48;100.00
4123;BME280;2075;51.062;6.920;2023-02-22T07:54:39;-9901.19;;;-144.48;100.00
4123;BME280;2075;51.062;6.920;2023-02-22T07:57:24;-7631.31;;;-144.48;100.00
4123;BME280;2075;51.062;6.920;2023-02-22T08:00:11;-7126.69;;;-144.48;100.00
4123;BME280;2075;51.062;6.920;2023-02-22T08:02:59;-7126.69;;;-144.48;100.00
4123;BME280;2075;51.062;6.920;2023-02-22T08:05:47;-3592.09;;;-144.48;100.00
4123;BME280;2075;51.062;6.920;2023-02-22T08:08:34;-306.56;;;-144.48;100.00
4123;BME280;2075;51.062;6.920;2023-02-22T08:11:19;705.03;;;-144.48;100.00
4123;BME280;2075;51.062;6.920;2023-02-22T08:14:05;1210.94;;;-144.48;100.00
4123;BME280;2075;51.062;6.920;2023-02-22T08:16:50;1716.94;;;-144.48;100.00
4123;BME280;2075;51.062;6.920;2023-02-22T08:19:35;2982.25;;;-144.48;100.00
4123;BME280;2075;51.062;6.920;2023-02-22T08:22:22;3235.38;;;-144.48;100.00
4123;BME280;2075;51.062;6.920;2023-02-22T08:25:09;6021.03;;;-144.48;100.00
4123;BME280;2075;51.062;6.920;2023-02-22T08:27:56;5514.38;;;-144.48;100.00
4123;BME280;2075;51.062;6.920;2023-02-22T08:30:44;4248.06;;;-144.48;100.00
4123;BME280;2075;51.062;6.920;2023-02-22T08:33:29;4501.28;;;-144.48;100.00
4123;BME280;2075;51.062;6.920;2023-02-22T08:36:14;6021.03;;;-144.48;100.00
4123;BME280;2075;51.062;6.920;2023-02-22T08:39:01;8555.47;;;-144.48;100.00
4123;BME280;2075;51.062;6.920;2023-02-22T08:41:48;11853.19;;;-144.48;100.00
4123;BME280;2075;51.062;6.920;2023-02-22T08:44:34;14138.13;;;-144.48;100.00
4123;BME280;2075;51.062;6.920;2023-02-22T08:47:19;14900.13;;;-144.48;100.00
4123;BME280;2075;51.062;6.920;2023-02-22T08:50:06;15916.41;;;-144.48;100.00
4123;BME280;2075;51.062;6.920;2023-02-22T08:52:54;19475.84;;;-144.48;100.00
4123;BME280;2075;51.062;6.920;2023-02-22T08:55:40;22784.44;;;-144.48;100.00
4123;BME280;2075;51.062;6.920;2023-02-22T08:58:27;24567.38;;;-144.48;100.00
4123;BME280;2075;51.062;6.920;2023-02-22T09:01:13;22275.22;;;-144.48;100.00
4123;BME280;2075;51.062;6.920;2023-02-22T09:03:58;24312.59;;;-144.48;100.00
4123;BME280;2075;51.062;6.920;2023-02-22T09:06:43;28136.09;;;-144.48;100.00
4123;BME280;2075;51.062;6.920;2023-02-22T09:09:34;29921.88;;;-144.48;100.00
4123;BME280;2075;51.062;6.920;2023-02-22T09:12:20;33496.31;;;-144.48;100.00
4123;BME280;2075;51.062;6.920;2023-02-22T09:15:07;37330.31;;;-144.48;100.00
4123;BME280;2075;51.062;6.920;2023-02-22T09:17:53;38353.47;;;-144.48;100.00
4123;BME280;2075;51.062;6.920;2023-02-22T09:20:39;40144.72;;;-144.48;100.00
4123;BME280;2075;51.062;6.920;2023-02-22T09:23:25;45011.50;;;-144.48;98.83
4123;BME280;2075;51.062;6.920;2023-02-22T09:26:10;45524.19;;;-144.48;99.08
4123;BME280;2075;51.062;6.920;2023-02-22T09:29:00;55023.25;;;-144.48;96.98
4123;BME280;2075;51.062;6.920;2023-02-22T09:31:48;67128.13;;;-144.48;94.07
4123;BME280;2075;51.062;6.920;2023-02-22T09:34:34;69967.41;;;-144.48;93.05
4123;BME280;2075;51.062;6.920;2023-02-22T09:37:20;74749.91;;;-144.48;91.89
4123;BME280;2075;51.062;6.920;2023-02-22T09:40:08;79381.28;;;-144.48;91.03
4123;BME280;2075;51.062;6.920;2023-02-22T09:43:11;75863.22;;;-144.48;91.31
4123;BME280;2075;51.062;6.920;2023-02-22T09:46:10;85031.88;;;-144.48;88.98
4123;BME280;2075;51.062;6.920;2023-02-22T09:49:08;80878.56;;;-144.48;90.02
4123;BME280;2075;51.062;6.920;2023-02-22T09:52:03;88500.53;;;-144.48;87.43
4123;BME280;2075;51.062;6.920;2023-02-22T09:54:54;89050.25;;;-144.48;87.09
4123;BME280;2075;51.062;6.920;2023-02-22T09:57:42;89289.63;;;-144.48;87.31
4123;BME280;2075;51.062;6.920;2023-02-22T10:00:31;90655.22;;;-144.48;85.92
4123;BME280;2075;51.062;6.920;2023-02-22T10:03:22;91471.19;;;-144.48;85.24
4123;BME280;2075;51.062;6.920;2023-02-22T10:06:11;91020.56;;;-144.48;85.55
4123;BME280;2075;51.062;6.920;2023-02-22T10:09:00;92338.13;;;-144.48;83.49
4123;BME280;2075;51.062;6.920;2023-02-22T10:11:56;93069.19;;;-144.48;82.78
4123;BME280;2075;51.062;6.920;2023-02-22T10:15:12;92750.34;;;-144.48;83.79
4123;BME280;2075;51.062;6.920;2023-02-22T10:18:12;92916.88;;;-144.48;83.48
4123;BME280;2075;51.062;6.920;2023-02-22T10:21:15;92837.69;;;-144.48;83.89
4123;BME280;2075;51.062;6.920;2023-02-22T10:24:14;92431.53;;;-144.48;84.65
4123;BME280;2075;51.062;6.920;2023-02-22T10:27:05;92224.41;;;-144.48;84.66
4123;BME280;2075;51.062;6.920;2023-02-22T10:29:54;92165.53;;;-144.48;84.65
4123;BME280;2075;51.062;6.920;2023-02-22T10:32:44;92027.47;;;-144.48;85.31
4123;BME280;2075;51.062;6.920;2023-02-22T10:35:32;91889.41;;;-144.48;84.70
4123;BME280;2075;51.062;6.920;2023-02-22T10:38:23;92620.38;;;-144.48;83.28
4123;BME280;2075;51.062;6.920;2023-02-22T10:41:18;92933.13;;;-144.48;83.47
4123;BME280;2075;51.062;6.920;2023-02-22T10:44:04;93339.31;;;-144.48;81.81
4123;BME280;2075;51.062;6.920;2023-02-22T10:46:50;93802.44;;;-144.48;80.00
4123;BME280;2075;51.062;6.920;2023-02-22T10:49:41;93808.53;;;-144.48;79.40
4123;BME280;2075;51.062;6.920;2023-02-22T10:52:29;93834.94;;;-144.48;78.21
4123;BME280;2075;51.062;6.920;2023-02-22T10:55:18;93883.72;;;-144.48;77.25
4123;BME280;2075;51.062;6.920;2023-02-22T10:58:05;93991.38;;;-144.48;76.19
4123;BME280;2075;51.062;6.920;2023-02-22T11:00:51;94017.78;;;-144.48;76.13
4123;BME280;2075;51.062;6.920;2023-02-22T11:03:36;93912.16;;;-144.48;76.56
4123;BME280;2075;51.062;6.920;2023-02-22T11:06:21;93977.16;;;-144.48;75.78
4123;BME280;2075;51.062;6.920;2023-02-22T11:09:13;93956.84;;;-144.48;74.38
4123;BME280;2075;51.062;6.920;2023-02-22T11:12:14;94001.53;;;-144.48;73.89
4123;BME280;2075;51.062;6.920;2023-02-22T11:15:24;94076.69;;;-144.48;72.58
4123;BME280;2075;51.062;6.920;2023-02-22T11:18:23;94164.06;;;-144.48;71.59
4123;BME280;2075;51.062;6.920;2023-02-22T11:21:11;93845.09;;;-144.48;70.80
4123;BME280;2075;51.062;6.920;2023-02-22T11:24:01;94023.88;;;-144.48;69.67
4123;BME280;2075;51.062;6.920;2023-02-22T11:26:49;94143.75;;;-144.48;68.15
4123;BME280;2075;51.062;6.920;2023-02-22T11:29:37;94050.28;;;-144.48;69.08
4123;BME280;2075;51.062;6.920;2023-02-22T11:32:23;94115.28;;;-144.48;67.77
4123;BME280;2075;51.062;6.920;2023-02-22T11:35:29;94212.81;;;-144.48;66.75
4123;BME280;2075;51.062;6.920;2023-02-22T11:38:18;94125.47;;;-144.48;63.24
4123;BME280;2075;51.062;6.920;2023-02-22T11:41:11;94068.56;;;-144.48;61.19
4123;BME280;2075;51.062;6.920;2023-02-22T11:44:12;94052.31;;;-144.48;58.98
4123;BME280;2075;51.062;6.920;2023-02-22T11:47:01;94115.28;;;-144.48;57.98
4123;BME280;2075;51.062;6.920;2023-02-22T11:49:50;94078.72;;;-144.48;57.24
4123;BME280;2075;51.062;6.920;2023-02-22T11:52:41;94040.13;;;-144.48;56.64
4123;BME280;2075;51.062;6.920;2023-02-22T11:55:33;94013.72;;;-144.48;55.66
4123;BME280;2075;51.062;6.920;2023-02-22T11:58:32;94015.75;;;-144.48;54.94
4123;BME280;2075;51.062;6.920;2023-02-22T12:01:27;93991.38;;;-144.48;54.84
4123;BME280;2075;51.062;6.920;2023-02-22T12:04:32;94070.59;;;-144.48;54.40
4123;BME280;2075;51.062;6.920;2023-02-22T12:07:32;94107.16;;;-144.48;55.04
4123;BME280;2075;51.062;6.920;2023-02-22T12:10:30;94086.84;;;-144.48;55.60
4123;BME280;2075;51.062;6.920;2023-02-22T12:13:29;94050.28;;;-144.48;54.19
4123;BME280;2075;51.062;6.920;2023-02-22T12:16:25;94013.72;;;-144.48;52.80
4123;BME280;2075;51.062;6.920;2023-02-22T12:19:18;93936.53;;;-144.48;52.30
4123;BME280;2075;51.062;6.920;2023-02-22T12:22:12;93969.03;;;-144.48;52.08
4123;BME280;2075;51.062;6.920;2023-02-22T12:25:02;94038.09;;;-144.48;51.28
4123;BME280;2075;51.062;6.920;2023-02-22T12:27:52;94062.47;;;-144.48;53.13
4123;BME280;2075;51.062;6.920;2023-02-22T12:30:41;94017.78;;;-144.48;53.38
4123;BME280;2075;51.062;6.920;2023-02-22T12:33:39;94007.63;;;-144.48;53.26
4123;BME280;2075;51.062;6.920;2023-02-22T12:36:31;94011.69;;;-144.48;52.12
4123;BME280;2075;51.062;6.920;2023-02-22T12:39:38;94027.94;;;-144.48;51.81
4123;BME280;2075;51.062;6.920;2023-02-22T12:42:32;93786.19;;;-144.48;51.71
4123;BME280;2075;51.062;6.920;2023-02-22T12:45:23;94023.88;;;-144.48;52.27
4123;BME280;2075;51.062;6.920;2023-02-22T12:48:25;93977.16;;;-144.48;51.77
4123;BME280;2075;51.062;6.920;2023-02-22T12:51:20;93971.06;;;-144.48;50.98
4123;BME280;2075;51.062;6.920;2023-02-22T12:54:13;93997.47;;;-144.48;50.89
4123;BME280;2075;51.062;6.920;2023-02-22T12:57:08;93999.50;;;-144.48;50.60
4123;BME280;2075;51.062;6.920;2023-02-22T13:00:00;94021.84;;;-144.48;51.87
4123;BME280;2075;51.062;6.920;2023-02-22T13:02:52;94040.13;;;-144.48;51.60
4123;BME280;2075;51.062;6.920;2023-02-22T13:05:40;94025.91;;;-144.48;52.33
4123;BME280;2075;51.062;6.920;2023-02-22T13:08:31;94066.53;;;-144.48;52.81
4123;BME280;2075;51.062;6.920;2023-02-22T13:11:25;94070.59;;;-144.48;52.93
4123;BME280;2075;51.062;6.920;2023-02-22T13:14:31;94058.41;;;-144.48;52.74
4123;BME280;2075;51.062;6.920;2023-02-22T13:17:23;94034.03;;;-144.48;52.07
4123;BME280;2075;51.062;6.920;2023-02-22T13:20:18;94068.56;;;-144.48;51.93
4123;BME280;2075;51.062;6.920;2023-02-22T13:23:09;94054.34;;;-144.48;51.80
4123;BME280;2075;51.062;6.920;2023-02-22T13:26:02;94038.09;;;-144.48;51.87
4123;BME280;2075;51.062;6.920;2023-02-22T13:28:56;94086.84;;;-144.48;51.60
4123;BME280;2075;51.062;6.920;2023-02-22T13:32:07;94050.28;;;-144.48;51.32
4123;BME280;2075;51.062;6.920;2023-02-22T13:35:13;94062.47;;;-144.48;51.82
4123;BME280;2075;51.062;6.920;2023-02-22T13:38:42;94058.41;;;-144.48;51.51
4123;BME280;2075;51.062;6.920;2023-02-22T13:41:50;94076.69;;;-144.48;50.98
4123;BME280;2075;51.062;6.920;2023-02-22T13:48:26;94009.66;;;-144.48;50.90
4123;BME280;2075;51.062;6.920;2023-02-22T13:51:29;93981.22;;;-144.48;50.22
4123;BME280;2075;51.062;6.920;2023-02-22T13:54:21;93879.66;;;-144.48;50.50
4123;BME280;2075;51.062;6.920;2023-02-22T13:57:19;93932.47;;;-144.48;49.68
4123;BME280;2075;51.062;6.920;2023-02-22T14:00:47;93904.03;;;-144.48;49.12
4123;BME280;2075;51.062;6.920;2023-02-22T14:03:37;93918.25;;;-144.48;48.87
4123;BME280;2075;51.062;6.920;2023-02-22T14:06:35;93912.16;;;-144.48;49.21
4123;BME280;2075;51.062;6.920;2023-02-22T14:09:41;93912.16;;;-144.48;49.87
4123;BME280;2075;51.062;6.920;2023-02-22T14:12:47;93938.56;;;-144.48;49.10
4123;BME280;2075;51.062;6.920;2023-02-22T14:15:32;93912.16;;;-144.48;49.09
4123;BME280;2075;51.062;6.920;2023-02-22T14:18:19;93798.38;;;-144.48;49.84
4123;BME280;2075;51.062;6.920;2023-02-22T14:21:08;93940.59;;;-144.48;50.41
4123;BME280;2075;51.062;6.920;2023-02-22T14:23:55;93916.22;;;-144.48;50.94
4123;BME280;2075;51.062;6.920;2023-02-22T14:26:53;93936.53;;;-144.48;51.04
4123;BME280;2075;51.062;6.920;2023-02-22T14:29:48;93863.41;;;-144.48;50.40
4123;BME280;2075;51.062;6.920;2023-02-22T14:32:37;93891.84;;;-144.48;50.63
4123;BME280;2075;51.062;6.920;2023-02-22T14:35:23;93906.06;;;-144.48;51.29
4123;BME280;2075;51.062;6.920;2023-02-22T14:38:15;93938.56;;;-144.48;51.96
4123;BME280;2075;51.062;6.920;2023-02-22T14:41:02;93964.97;;;-144.48;51.57
4123;BME280;2075;51.062;6.920;2023-02-22T14:43:48;94001.53;;;-144.48;51.61
4123;BME280;2075;51.062;6.920;2023-02-22T14:46:35;93920.28;;;-144.48;51.85
4123;BME280;2075;51.062;6.920;2023-02-22T14:49:27;93914.19;;;-144.48;52.14
4123;BME280;2075;51.062;6.920;2023-02-22T14:52:20;93952.78;;;-144.48;51.81